sensor_id;sensor_type;location;lat;lon;timestamp;pressure;altitude;pressure_sealevel;temperature;humidity
55466;BME280;41329;41.594;23.810;2023-07-09T00:01:55;95563.75;;;20.83;57.14
55466;BME280;41329;41.594;23.810;2023-07-09T00:04:21;95562.16;;;20.82;57.42
55466;BME280;41329;41.594;23.810;2023-07-09T00:06:46;95553.38;;;20.80;56.97
55466;BME280;41329;41.594;23.810;2023-07-09T00:09:17;95537.69;;;20.59;56.91
55466;BME280;41329;41.594;23.810;2023-07-09T00:11:44;95547.25;;;20.65;56.81
55466;BME280;41329;41.594;23.810;2023-07-09T00:14:11;95539.00;;;20.55;57.01
55466;BME280;41329;41.594;23.810;2023-07-09T00:16:38;95535.53;;;20.47;57.47
55466;BME280;41329;41.594;23.810;2023-07-09T00:19:05;95542.78;;;20.45;57.55
55466;BME280;41329;41.594;23.810;2023-07-09T00:21:36;95531.44;;;20.29;57.57
55466;BME280;41329;41.594;23.810;2023-07-09T00:24:02;95538.28;;;20.28;57.54
55466;BME280;41329;41.594;23.810;2023-07-09T00:26:31;95552.59;;;20.37;58.06
55466;BME280;41329;41.594;23.810;2023-07-09T00:29:00;95501.41;;;20.03;57.79
55466;BME280;41329;41.594;23.810;2023-07-09T00:31:26;95555.84;;;20.35;57.69
55466;BME280;41329;41.594;23.810;2023-07-09T00:33:52;95549.03;;;20.33;58.33
55466;BME280;41329;41.594;23.810;2023-07-09T00:36:28;95553.09;;;20.32;58.22
55466;BME280;41329;41.594;23.810;2023-07-09T00:38:54;95537.34;;;20.15;57.93
55466;BME280;41329;41.594;23.810;2023-07-09T00:41:22;95550.47;;;20.21;58.26
55466;BME280;41329;41.594;23.810;2023-07-09T00:43:50;95545.69;;;20.18;57.91
55466;BME280;41329;41.594;23.810;2023-07-09T00:48:45;95546.28;;;20.06;58.10
55466;BME280;41329;41.594;23.810;2023-07-09T00:51:14;95550.75;;;20.04;58.40
55466;BME280;41329;41.594;23.810;2023-07-09T00:53:42;95528.50;;;19.90;58.87
55466;BME280;41329;41.594;23.810;2023-07-09T00:56:13;95543.66;;;19.96;58.71
55466;BME280;41329;41.594;23.810;2023-07-09T00:58:40;95537.00;;;19.86;58.94
55466;BME280;41329;41.594;23.810;2023-07-09T01:01:10;95518.00;;;19.71;59.11
55466;BME280;41329;41.594;23.810;2023-07-09T01:03:45;95524.38;;;19.75;59.12
55466;BME280;41329;41.594;23.810;2023-07-09T01:06:11;95539.44;;;19.84;59.46
55466;BME280;41329;41.594;23.810;2023-07-09T01:08:39;95534.31;;;19.79;58.95
55466;BME280;41329;41.594;23.810;2023-07-09T01:11:18;95534.72;;;19.78;59.35
55466;BME280;41329;41.594;23.810;2023-07-09T01:13:53;95536.78;;;19.74;59.48
55466;BME280;41329;41.594;23.810;2023-07-09T01:16:22;95527.81;;;19.59;59.81
55466;BME280;41329;41.594;23.810;2023-07-09T01:18:50;95550.47;;;19.72;59.68
55466;BME280;41329;41.594;23.810;2023-07-09T01:21:15;95549.66;;;19.71;59.89
55466;BME280;41329;41.594;23.810;2023-07-09T01:23:45;95546.09;;;19.71;60.21
55466;BME280;41329;41.594;23.810;2023-07-09T01:26:15;95549.66;;;19.71;59.85
55466;BME280;41329;41.594;23.810;2023-07-09T01:28:41;95543.31;;;19.67;59.83
55466;BME280;41329;41.594;23.810;2023-07-09T01:31:09;95546.94;;;19.68;59.83
55466;BME280;41329;41.594;23.810;2023-07-09T01:33:35;95557.00;;;19.65;59.71
55466;BME280;41329;41.594;23.810;2023-07-09T01:36:02;95547.16;;;19.54;59.82
55466;BME280;41329;41.594;23.810;2023-07-09T01:38:27;95562.69;;;19.62;60.09
55466;BME280;41329;41.594;23.810;2023-07-09T01:40:59;95551.88;;;19.60;59.96
55466;BME280;41329;41.594;23.810;2023-07-09T01:43:25;95553.94;;;19.56;59.84
55466;BME280;41329;41.594;23.810;2023-07-09T01:45:51;95553.97;;;19.53;60.68
55466;BME280;41329;41.594;23.810;2023-07-09T01:48:18;95539.34;;;19.38;60.21
55466;BME280;41329;41.594;23.810;2023-07-09T01:50:47;95539.00;;;19.36;60.43
55466;BME280;41329;41.594;23.810;2023-07-09T01:53:16;95567.31;;;19.45;60.16
55466;BME280;41329;41.594;23.810;2023-07-09T01:55:43;95561.44;;;19.36;60.41
55466;BME280;41329;41.594;23.810;2023-07-09T01:58:09;95574.22;;;19.07;61.06
55466;BME280;41329;41.594;23.810;2023-07-09T02:00:36;95564.97;;;19.10;61.41
55466;BME280;41329;41.594;23.810;2023-07-09T02:03:02;95562.31;;;19.00;61.49
55466;BME280;41329;41.594;23.810;2023-07-09T02:05:30;95573.06;;;19.05;61.71
55466;BME280;41329;41.594;23.810;2023-07-09T02:07:56;95573.81;;;19.09;61.77
55466;BME280;41329;41.594;23.810;2023-07-09T02:10:22;95583.44;;;19.08;61.49
55466;BME280;41329;41.594;23.810;2023-07-09T02:12:48;95575.88;;;19.05;61.61
55466;BME280;41329;41.594;23.810;2023-07-09T02:15:14;95582.28;;;19.05;61.30
55466;BME280;41329;41.594;23.810;2023-07-09T02:17:40;95573.47;;;19.03;61.53
55466;BME280;41329;41.594;23.810;2023-07-09T02:20:06;95587.91;;;19.02;61.66
55466;BME280;41329;41.594;23.810;2023-07-09T02:22:33;95572.81;;;18.92;61.68
55466;BME280;41329;41.594;23.810;2023-07-09T02:24:59;95593.09;;;19.03;61.44
55466;BME280;41329;41.594;23.810;2023-07-09T02:27:25;95592.75;;;19.01;61.04
55466;BME280;41329;41.594;23.810;2023-07-09T02:29:51;95590.84;;;18.91;61.48
55466;BME280;41329;41.594;23.810;2023-07-09T02:32:19;95598.00;;;18.96;61.19
55466;BME280;41329;41.594;23.810;2023-07-09T02:34:44;95588.97;;;18.81;60.88
55466;BME280;41329;41.594;23.810;2023-07-09T02:37:15;95604.53;;;18.86;61.13
55466;BME280;41329;41.594;23.810;2023-07-09T02:39:41;95604.22;;;18.80;61.46
55466;BME280;41329;41.594;23.810;2023-07-09T02:42:12;95598.25;;;18.75;61.78
55466;BME280;41329;41.594;23.810;2023-07-09T02:44:39;95610.72;;;18.70;62.22
55466;BME280;41329;41.594;23.810;2023-07-09T02:47:05;95615.91;;;18.72;62.42
55466;BME280;41329;41.594;23.810;2023-07-09T02:49:30;95614.31;;;18.71;62.38
55466;BME280;41329;41.594;23.810;2023-07-09T02:51:56;95615.56;;;18.66;62.60
55466;BME280;41329;41.594;23.810;2023-07-09T02:54:21;95622.72;;;18.71;62.31
55466;BME280;41329;41.594;23.810;2023-07-09T02:56:46;95615.97;;;18.65;62.29
55466;BME280;41329;41.594;23.810;2023-07-09T02:59:12;95619.59;;;18.65;62.58
55466;BME280;41329;41.594;23.810;2023-07-09T03:01:37;95602.47;;;18.56;62.91
55466;BME280;41329;41.594;23.810;2023-07-09T03:04:03;95613.97;;;18.65;63.01
55466;BME280;41329;41.594;23.810;2023-07-09T03:06:30;95618.41;;;18.63;62.88
55466;BME280;41329;41.594;23.810;2023-07-09T03:08:58;95609.75;;;18.47;62.72
55466;BME280;41329;41.594;23.810;2023-07-09T03:11:24;95621.28;;;18.56;62.99
55466;BME280;41329;41.594;23.810;2023-07-09T03:13:49;95603.00;;;18.44;62.89
55466;BME280;41329;41.594;23.810;2023-07-09T03:16:15;95611.34;;;18.48;62.81
55466;BME280;41329;41.594;23.810;2023-07-09T03:18:40;95623.31;;;18.55;62.47
55466;BME280;41329;41.594;23.810;2023-07-09T03:21:06;95622.50;;;18.55;62.70
55466;BME280;41329;41.594;23.810;2023-07-09T03:23:31;95633.66;;;18.58;63.17
55466;BME280;41329;41.594;23.810;2023-07-09T03:25:57;95630.09;;;18.58;63.03
55466;BME280;41329;41.594;23.810;2023-07-09T03:28:23;95636.44;;;18.62;63.57
55466;BME280;41329;41.594;23.810;2023-07-09T03:30:49;95610.56;;;18.47;63.47
55466;BME280;41329;41.594;23.810;2023-07-09T03:33:16;95631.22;;;18.64;63.71
55466;BME280;41329;41.594;23.810;2023-07-09T03:35:42;95630.38;;;18.67;62.84
55466;BME280;41329;41.594;23.810;2023-07-09T03:38:09;95637.22;;;18.66;63.10
55466;BME280;41329;41.594;23.810;2023-07-09T03:40:35;95626.88;;;18.56;63.16
55466;BME280;41329;41.594;23.810;2023-07-09T03:43:06;95634.47;;;18.59;62.92
55466;BME280;41329;41.594;23.810;2023-07-09T03:45:34;95639.72;;;18.57;63.01
55466;BME280;41329;41.594;23.810;2023-07-09T03:48:00;95621.78;;;18.44;63.19
55466;BME280;41329;41.594;23.810;2023-07-09T03:50:25;95634.13;;;18.53;63.61
55466;BME280;41329;41.594;23.810;2023-07-09T03:52:50;95643.69;;;18.56;64.00
55466;BME280;41329;41.594;23.810;2023-07-09T03:55:16;95633.75;;;18.48;63.98
55466;BME280;41329;41.594;23.810;2023-07-09T03:57:41;95637.72;;;18.54;64.15
55466;BME280;41329;41.594;23.810;2023-07-09T04:00:07;95643.75;;;18.52;63.64
55466;BME280;41329;41.594;23.810;2023-07-09T04:02:40;95651.44;;;18.45;63.30
55466;BME280;41329;41.594;23.810;2023-07-09T04:05:06;95629.13;;;18.27;63.36
55466;BME280;41329;41.594;23.810;2023-07-09T04:07:33;95635.88;;;18.37;63.94
55466;BME280;41329;41.594;23.810;2023-07-09T04:09:59;95641.44;;;18.40;63.99
55466;BME280;41329;41.594;23.810;2023-07-09T04:12:24;95633.88;;;18.37;64.24
55466;BME280;41329;41.594;23.810;2023-07-09T04:14:50;95640.22;;;18.45;64.79
55466;BME280;41329;41.594;23.810;2023-07-09T04:17:15;95642.56;;;18.50;64.72
55466;BME280;41329;41.594;23.810;2023-07-09T04:19:41;95645.38;;;18.50;64.49
55466;BME280;41329;41.594;23.810;2023-07-09T04:22:06;95646.09;;;18.57;64.77
55466;BME280;41329;41.594;23.810;2023-07-09T04:24:32;95624.59;;;18.47;65.11
55466;BME280;41329;41.594;23.810;2023-07-09T04:26:58;95639.63;;;18.64;65.10
55466;BME280;41329;41.594;23.810;2023-07-09T04:29:31;95622.53;;;18.51;65.11
55466;BME280;41329;41.594;23.810;2023-07-09T04:32:07;95644.75;;;18.72;65.35
55466;BME280;41329;41.594;23.810;2023-07-09T04:34:33;95635.16;;;18.70;65.71
55466;BME280;41329;41.594;23.810;2023-07-09T04:36:58;95642.25;;;18.81;65.85
55466;BME280;41329;41.594;23.810;2023-07-09T04:39:24;95617.47;;;18.76;65.16
55466;BME280;41329;41.594;23.810;2023-07-09T04:41:49;95641.91;;;18.76;65.55
55466;BME280;41329;41.594;23.810;2023-07-09T04:44:15;95647.56;;;18.69;66.32
55466;BME280;41329;41.594;23.810;2023-07-09T04:46:40;95630.91;;;18.55;66.68
55466;BME280;41329;41.594;23.810;2023-07-09T04:49:06;95647.97;;;18.71;66.74
55466;BME280;41329;41.594;23.810;2023-07-09T04:51:31;95638.75;;;18.70;66.91
55466;BME280;41329;41.594;23.810;2023-07-09T04:53:57;95634.31;;;18.73;66.98
55466;BME280;41329;41.594;23.810;2023-07-09T04:56:22;95630.38;;;18.67;67.14
55466;BME280;41329;41.594;23.810;2023-07-09T04:58:48;95645.63;;;18.62;67.27
55466;BME280;41329;41.594;23.810;2023-07-09T05:01:13;95664.03;;;18.67;67.83
55466;BME280;41329;41.594;23.810;2023-07-09T05:03:39;95652.56;;;18.51;68.50
55466;BME280;41329;41.594;23.810;2023-07-09T05:06:05;95649.81;;;18.47;68.46
55466;BME280;41329;41.594;23.810;2023-07-09T05:08:31;95658.47;;;18.60;68.32
55466;BME280;41329;41.594;23.810;2023-07-09T05:10:57;95656.81;;;18.66;68.09
55466;BME280;41329;41.594;23.810;2023-07-09T05:13:25;95659.06;;;18.81;68.12
55466;BME280;41329;41.594;23.810;2023-07-09T05:15:52;95661.00;;;18.88;68.00
55466;BME280;41329;41.594;23.810;2023-07-09T05:18:17;95652.09;;;18.59;68.42
55466;BME280;41329;41.594;23.810;2023-07-09T05:20:44;95664.94;;;18.53;69.17
55466;BME280;41329;41.594;23.810;2023-07-09T05:23:10;95651.69;;;18.57;69.35
55466;BME280;41329;41.594;23.810;2023-07-09T05:25:35;95661.78;;;18.51;69.59
55466;BME280;41329;41.594;23.810;2023-07-09T05:28:01;95656.72;;;18.36;70.03
55466;BME280;41329;41.594;23.810;2023-07-09T05:30:27;95662.66;;;18.41;69.97
55466;BME280;41329;41.594;23.810;2023-07-09T05:32:52;95666.63;;;18.44;69.79
55466;BME280;41329;41.594;23.810;2023-07-09T05:35:21;95649.03;;;18.43;69.40
55466;BME280;41329;41.594;23.810;2023-07-09T05:37:46;95666.00;;;18.70;69.03
55466;BME280;41329;41.594;23.810;2023-07-09T05:40:12;95641.59;;;18.67;69.05
55466;BME280;41329;41.594;23.810;2023-07-09T05:42:38;95629.94;;;18.72;68.46
55466;BME280;41329;41.594;23.810;2023-07-09T05:45:03;95654.88;;;18.96;67.91
55466;BME280;41329;41.594;23.810;2023-07-09T05:47:29;95657.78;;;18.89;68.39
55466;BME280;41329;41.594;23.810;2023-07-09T05:49:54;95638.28;;;18.79;67.93
55466;BME280;41329;41.594;23.810;2023-07-09T05:52:21;95639.16;;;19.06;67.39
55466;BME280;41329;41.594;23.810;2023-07-09T05:54:49;95652.16;;;19.23;66.07
55466;BME280;41329;41.594;23.810;2023-07-09T05:57:15;95656.03;;;19.36;65.46
55466;BME280;41329;41.594;23.810;2023-07-09T05:59:41;95642.25;;;19.48;65.24
55466;BME280;41329;41.594;23.810;2023-07-09T06:02:11;95651.13;;;19.73;64.49
55466;BME280;41329;41.594;23.810;2023-07-09T06:04:37;95650.00;;;19.67;64.47
55466;BME280;41329;41.594;23.810;2023-07-09T06:07:02;95646.94;;;19.85;63.90
55466;BME280;41329;41.594;23.810;2023-07-09T06:09:29;95653.97;;;19.96;63.42
55466;BME280;41329;41.594;23.810;2023-07-09T06:11:54;95647.03;;;20.04;62.81
55466;BME280;41329;41.594;23.810;2023-07-09T06:14:20;95648.75;;;20.25;62.52
55466;BME280;41329;41.594;23.810;2023-07-09T06:16:45;95636.91;;;20.37;62.28
55466;BME280;41329;41.594;23.810;2023-07-09T06:19:10;95653.34;;;20.61;61.85
55466;BME280;41329;41.594;23.810;2023-07-09T06:21:36;95645.66;;;20.65;60.49
55466;BME280;41329;41.594;23.810;2023-07-09T06:24:01;95640.25;;;20.51;60.04
55466;BME280;41329;41.594;23.810;2023-07-09T06:26:27;95629.69;;;20.59;60.26
55466;BME280;41329;41.594;23.810;2023-07-09T06:28:52;95635.28;;;20.82;60.20
55466;BME280;41329;41.594;23.810;2023-07-09T06:31:17;95597.66;;;20.76;59.04
55466;BME280;41329;41.594;23.810;2023-07-09T06:33:47;95629.59;;;21.08;59.24
55466;BME280;41329;41.594;23.810;2023-07-09T06:36:12;95629.78;;;20.98;58.50
55466;BME280;41329;41.594;23.810;2023-07-09T06:38:37;95607.28;;;20.98;58.54
55466;BME280;41329;41.594;23.810;2023-07-09T06:41:03;95603.66;;;20.97;58.47
55466;BME280;41329;41.594;23.810;2023-07-09T06:43:28;95613.56;;;21.25;58.82
55466;BME280;41329;41.594;23.810;2023-07-09T06:45:57;95625.31;;;21.39;57.37
55466;BME280;41329;41.594;23.810;2023-07-09T06:48:24;95615.06;;;21.49;57.73
55466;BME280;41329;41.594;23.810;2023-07-09T06:50:51;95610.34;;;21.62;56.46
55466;BME280;41329;41.594;23.810;2023-07-09T06:53:17;95606.72;;;21.81;56.83
55466;BME280;41329;41.594;23.810;2023-07-09T06:55:42;95623.66;;;21.97;55.07
55466;BME280;41329;41.594;23.810;2023-07-09T06:58:08;95606.28;;;21.98;54.65
55466;BME280;41329;41.594;23.810;2023-07-09T07:00:37;95611.41;;;22.19;54.93
55466;BME280;41329;41.594;23.810;2023-07-09T07:03:04;95617.16;;;22.32;54.05
55466;BME280;41329;41.594;23.810;2023-07-09T07:05:30;95612.13;;;22.39;54.24
55466;BME280;41329;41.594;23.810;2023-07-09T07:07:56;95601.13;;;22.45;52.55
55466;BME280;41329;41.594;23.810;2023-07-09T07:10:22;95607.31;;;22.56;53.11
55466;BME280;41329;41.594;23.810;2023-07-09T07:12:48;95613.38;;;22.70;52.86
55466;BME280;41329;41.594;23.810;2023-07-09T07:15:16;95593.72;;;22.67;51.66
55466;BME280;41329;41.594;23.810;2023-07-09T07:17:42;95602.75;;;22.90;51.00
55466;BME280;41329;41.594;23.810;2023-07-09T07:20:10;95603.09;;;22.92;51.56
55466;BME280;41329;41.594;23.810;2023-07-09T07:22:37;95600.69;;;23.07;50.48
55466;BME280;41329;41.594;23.810;2023-07-09T07:25:04;95595.00;;;23.23;50.63
55466;BME280;41329;41.594;23.810;2023-07-09T07:27:30;95588.69;;;23.32;49.72
55466;BME280;41329;41.594;23.810;2023-07-09T07:29:55;95595.41;;;23.38;49.98
55466;BME280;41329;41.594;23.810;2023-07-09T07:32:21;95586.03;;;23.53;50.77
55466;BME280;41329;41.594;23.810;2023-07-09T07:34:47;95590.81;;;23.69;49.98
55466;BME280;41329;41.594;23.810;2023-07-09T07:37:13;95590.00;;;23.68;50.49
55466;BME280;41329;41.594;23.810;2023-07-09T07:39:39;95586.09;;;23.78;50.14
55466;BME280;41329;41.594;23.810;2023-07-09T07:42:04;95576.47;;;23.88;48.77
55466;BME280;41329;41.594;23.810;2023-07-09T07:44:30;95583.13;;;23.82;50.41
55466;BME280;41329;41.594;23.810;2023-07-09T07:46:55;95575.47;;;23.95;49.88
55466;BME280;41329;41.594;23.810;2023-07-09T07:49:21;95569.16;;;24.03;49.04
55466;BME280;41329;41.594;23.810;2023-07-09T07:51:46;95571.75;;;24.23;50.54
55466;BME280;41329;41.594;23.810;2023-07-09T07:54:12;95574.63;;;24.44;49.17
55466;BME280;41329;41.594;23.810;2023-07-09T07:56:38;95572.81;;;24.50;47.62
55466;BME280;41329;41.594;23.810;2023-07-09T07:59:03;95564.88;;;24.58;48.77
55466;BME280;41329;41.594;23.810;2023-07-09T08:01:29;95565.56;;;24.62;46.74
55466;BME280;41329;41.594;23.810;2023-07-09T08:03:54;95564.31;;;24.75;47.63
55466;BME280;41329;41.594;23.810;2023-07-09T08:06:20;95571.53;;;24.76;46.62
55466;BME280;41329;41.594;23.810;2023-07-09T08:08:46;95569.50;;;24.77;46.51
55466;BME280;41329;41.594;23.810;2023-07-09T08:11:11;95559.38;;;24.88;46.69
55466;BME280;41329;41.594;23.810;2023-07-09T08:13:37;95562.44;;;24.94;45.80
55466;BME280;41329;41.594;23.810;2023-07-09T08:16:05;95556.50;;;25.01;47.64
55466;BME280;41329;41.594;23.810;2023-07-09T08:18:31;95553.22;;;25.24;47.28
55466;BME280;41329;41.594;23.810;2023-07-09T08:20:58;95549.34;;;25.30;46.71
55466;BME280;41329;41.594;23.810;2023-07-09T08:23:24;95539.06;;;25.45;45.98
55466;BME280;41329;41.594;23.810;2023-07-09T08:25:56;95529.09;;;25.62;45.53
55466;BME280;41329;41.594;23.810;2023-07-09T08:28:23;95542.59;;;25.89;44.47
55466;BME280;41329;41.594;23.810;2023-07-09T08:30:48;95530.59;;;25.85;44.66
55466;BME280;41329;41.594;23.810;2023-07-09T08:33:16;95537.03;;;26.07;43.89
55466;BME280;41329;41.594;23.810;2023-07-09T08:35:42;95528.41;;;26.19;43.77
55466;BME280;41329;41.594;23.810;2023-07-09T08:38:08;95527.34;;;26.35;42.33
55466;BME280;41329;41.594;23.810;2023-07-09T08:40:39;95523.75;;;26.52;43.28
55466;BME280;41329;41.594;23.810;2023-07-09T08:43:33;95530.59;;;26.73;44.55
55466;BME280;41329;41.594;23.810;2023-07-09T08:46:37;95529.97;;;27.05;42.10
55466;BME280;41329;41.594;23.810;2023-07-09T08:49:12;95524.31;;;26.78;41.01
55466;BME280;41329;41.594;23.810;2023-07-09T08:51:41;95498.41;;;26.76;42.20
55466;BME280;41329;41.594;23.810;2023-07-09T08:54:18;95501.59;;;26.87;42.33
55466;BME280;41329;41.594;23.810;2023-07-09T08:56:48;95527.63;;;26.85;40.09
55466;BME280;41329;41.594;23.810;2023-07-09T08:59:16;95517.34;;;26.88;39.75
55466;BME280;41329;41.594;23.810;2023-07-09T09:02:01;95517.06;;;26.95;39.22
55466;BME280;41329;41.594;23.810;2023-07-09T09:04:30;95518.75;;;26.92;37.21
55466;BME280;41329;41.594;23.810;2023-07-09T09:07:05;95524.13;;;26.90;35.63
55466;BME280;41329;41.594;23.810;2023-07-09T09:09:33;95515.94;;;27.10;nan
55466;BME280;41329;41.594;23.810;2023-07-09T09:12:19;95515.91;;;27.37;36.02
55466;BME280;41329;41.594;23.810;2023-07-09T09:14:55;95517.38;;;27.33;34.27
55466;BME280;41329;41.594;23.810;2023-07-09T09:17:23;95517.53;;;27.20;34.14
55466;BME280;41329;41.594;23.810;2023-07-09T09:19:56;95515.00;;;27.31;36.18
55466;BME280;41329;41.594;23.810;2023-07-09T09:22:27;95511.00;;;27.47;35.35
55466;BME280;41329;41.594;23.810;2023-07-09T09:25:17;95509.25;;;27.58;35.17
55466;BME280;41329;41.594;23.810;2023-07-09T09:27:45;95471.53;;;27.40;34.77
55466;BME280;41329;41.594;23.810;2023-07-09T09:30:16;95513.13;;;27.88;35.60
55466;BME280;41329;41.594;23.810;2023-07-09T09:32:46;95507.78;;;28.14;34.10
55466;BME280;41329;41.594;23.810;2023-07-09T09:35:17;95511.03;;;27.98;32.71
55466;BME280;41329;41.594;23.810;2023-07-09T09:37:51;95513.47;;;28.14;34.35
55466;BME280;41329;41.594;23.810;2023-07-09T09:40:18;95504.00;;;28.40;33.12
55466;BME280;41329;41.594;23.810;2023-07-09T09:42:47;95492.13;;;28.51;32.04
55466;BME280;41329;41.594;23.810;2023-07-09T09:45:16;95498.16;;;28.44;32.89
55466;BME280;41329;41.594;23.810;2023-07-09T09:47:43;95496.84;;;28.54;33.19
55466;BME280;41329;41.594;23.810;2023-07-09T09:50:19;95478.81;;;28.57;33.61
55466;BME280;41329;41.594;23.810;2023-07-09T09:52:47;95486.41;;;28.51;33.77
55466;BME280;41329;41.594;23.810;2023-07-09T09:55:23;95484.38;;;28.51;32.25
55466;BME280;41329;41.594;23.810;2023-07-09T09:57:50;95481.09;;;28.44;31.36
55466;BME280;41329;41.594;23.810;2023-07-09T10:00:17;95480.13;;;28.47;31.24
55466;BME280;41329;41.594;23.810;2023-07-09T10:02:43;95473.16;;;28.71;33.37
55466;BME280;41329;41.594;23.810;2023-07-09T10:05:15;95480.88;;;28.94;32.88
55466;BME280;41329;41.594;23.810;2023-07-09T10:10:49;95468.16;;;28.81;32.87
55466;BME280;41329;41.594;23.810;2023-07-09T10:13:28;95472.59;;;28.82;34.39
55466;BME280;41329;41.594;23.810;2023-07-09T10:16:07;95461.50;;;28.84;32.72
55466;BME280;41329;41.594;23.810;2023-07-09T10:21:26;95466.50;;;29.12;32.08
55466;BME280;41329;41.594;23.810;2023-07-09T10:27:13;95458.16;;;29.52;31.74
55466;BME280;41329;41.594;23.810;2023-07-09T10:32:33;95444.22;;;29.69;28.71
55466;BME280;41329;41.594;23.810;2023-07-09T10:38:01;95428.47;;;29.73;29.71
55466;BME280;41329;41.594;23.810;2023-07-09T10:40:32;95448.78;;;29.95;30.10
55466;BME280;41329;41.594;23.810;2023-07-09T10:43:00;95453.63;;;29.89;29.37
55466;BME280;41329;41.594;23.810;2023-07-09T10:45:31;95448.97;;;30.06;30.14
55466;BME280;41329;41.594;23.810;2023-07-09T10:48:02;95429.44;;;29.85;30.84
55466;BME280;41329;41.594;23.810;2023-07-09T10:50:36;95435.69;;;30.03;29.68
55466;BME280;41329;41.594;23.810;2023-07-09T10:53:14;95436.97;;;30.17;29.39
55466;BME280;41329;41.594;23.810;2023-07-09T10:58:25;95428.28;;;30.46;29.49
55466;BME280;41329;41.594;23.810;2023-07-09T11:00:53;95443.41;;;30.52;28.93
55466;BME280;41329;41.594;23.810;2023-07-09T11:03:50;95437.44;;;30.50;31.17
55466;BME280;41329;41.594;23.810;2023-07-09T11:06:20;95439.13;;;30.62;31.35
55466;BME280;41329;41.594;23.810;2023-07-09T11:08:49;95433.63;;;30.58;29.13
55466;BME280;41329;41.594;23.810;2023-07-09T11:11:49;95416.44;;;30.53;30.18
55466;BME280;41329;41.594;23.810;2023-07-09T11:14:23;95426.31;;;30.72;30.74
55466;BME280;41329;41.594;23.810;2023-07-09T11:16:54;95423.66;;;30.68;30.46
55466;BME280;41329;41.594;23.810;2023-07-09T11:19:21;95417.88;;;30.43;29.84
55466;BME280;41329;41.594;23.810;2023-07-09T11:22:06;95422.13;;;30.53;29.20
55466;BME280;41329;41.594;23.810;2023-07-09T11:24:49;95407.47;;;30.80;32.16
55466;BME280;41329;41.594;23.810;2023-07-09T11:27:24;95421.09;;;31.16;31.68
55466;BME280;41329;41.594;23.810;2023-07-09T11:30:15;95409.88;;;31.32;31.36
55466;BME280;41329;41.594;23.810;2023-07-09T11:32:47;95410.53;;;31.22;31.81
55466;BME280;41329;41.594;23.810;2023-07-09T11:35:23;95397.47;;;31.15;31.73
55466;BME280;41329;41.594;23.810;2023-07-09T11:37:50;95395.47;;;31.01;31.03
55466;BME280;41329;41.594;23.810;2023-07-09T11:40:16;95391.94;;;30.86;32.44
55466;BME280;41329;41.594;23.810;2023-07-09T11:42:58;95402.22;;;30.98;31.88
55466;BME280;41329;41.594;23.810;2023-07-09T11:45:33;95398.63;;;31.29;31.89
55466;BME280;41329;41.594;23.810;2023-07-09T11:48:22;95397.63;;;31.32;31.40
55466;BME280;41329;41.594;23.810;2023-07-09T11:50:51;95383.44;;;31.17;31.69
55466;BME280;41329;41.594;23.810;2023-07-09T11:55:54;95353.72;;;31.09;31.28
55466;BME280;41329;41.594;23.810;2023-07-09T11:58:20;95378.88;;;31.25;29.70
55466;BME280;41329;41.594;23.810;2023-07-09T12:00:56;95386.38;;;31.23;31.70
55466;BME280;41329;41.594;23.810;2023-07-09T12:03:31;95367.81;;;31.13;32.65
55466;BME280;41329;41.594;23.810;2023-07-09T12:06:22;95374.59;;;31.41;31.23
55466;BME280;41329;41.594;23.810;2023-07-09T12:08:50;95377.47;;;31.21;31.94
55466;BME280;41329;41.594;23.810;2023-07-09T12:11:23;95349.28;;;31.28;31.68
55466;BME280;41329;41.594;23.810;2023-07-09T12:13:49;95347.84;;;31.44;31.00
55466;BME280;41329;41.594;23.810;2023-07-09T12:18:45;95368.84;;;31.41;30.73
55466;BME280;41329;41.594;23.810;2023-07-09T12:21:11;95357.91;;;31.34;31.44
55466;BME280;41329;41.594;23.810;2023-07-09T12:23:39;95358.47;;;31.38;32.48
55466;BME280;41329;41.594;23.810;2023-07-09T12:26:06;95353.44;;;31.33;31.72
55466;BME280;41329;41.594;23.810;2023-07-09T12:28:35;95352.44;;;31.36;31.35
55466;BME280;41329;41.594;23.810;2023-07-09T12:31:01;95345.44;;;31.37;31.00
55466;BME280;41329;41.594;23.810;2023-07-09T12:33:27;95311.72;;;31.21;31.15
55466;BME280;41329;41.594;23.810;2023-07-09T12:35:58;95329.63;;;31.41;31.53
55466;BME280;41329;41.594;23.810;2023-07-09T12:38:26;95348.22;;;31.26;31.52
55466;BME280;41329;41.594;23.810;2023-07-09T12:40:53;95345.28;;;31.51;31.13
55466;BME280;41329;41.594;23.810;2023-07-09T12:43:26;95340.91;;;31.56;31.11
55466;BME280;41329;41.594;23.810;2023-07-09T12:45:53;95340.81;;;31.45;31.32
55466;BME280;41329;41.594;23.810;2023-07-09T12:48:24;95338.50;;;31.49;31.08
55466;BME280;41329;41.594;23.810;2023-07-09T12:50:51;95343.72;;;31.50;31.70
55466;BME280;41329;41.594;23.810;2023-07-09T12:53:19;95337.81;;;31.59;31.73
55466;BME280;41329;41.594;23.810;2023-07-09T12:55:48;95337.88;;;31.34;30.35
55466;BME280;41329;41.594;23.810;2023-07-09T12:58:23;95334.03;;;31.42;31.61
55466;BME280;41329;41.594;23.810;2023-07-09T13:00:51;95314.78;;;31.37;31.38
55466;BME280;41329;41.594;23.810;2023-07-09T13:03:25;95325.13;;;31.66;31.81
55466;BME280;41329;41.594;23.810;2023-07-09T13:05:53;95327.59;;;31.84;30.94
55466;BME280;41329;41.594;23.810;2023-07-09T13:08:18;95327.59;;;31.84;30.65
55466;BME280;41329;41.594;23.810;2023-07-09T13:10:44;95317.38;;;31.72;30.15
55466;BME280;41329;41.594;23.810;2023-07-09T13:13:12;95324.66;;;31.73;30.20
55466;BME280;41329;41.594;23.810;2023-07-09T13:15:43;95329.28;;;31.65;31.62
55466;BME280;41329;41.594;23.810;2023-07-09T13:18:11;95324.75;;;31.84;32.04
55466;BME280;41329;41.594;23.810;2023-07-09T13:20:39;95316.44;;;31.49;30.60
55466;BME280;41329;41.594;23.810;2023-07-09T13:23:20;95323.47;;;31.54;30.89